createdAt,value
2018-02-13T00:02:40.830Z,13.43
2018-02-13T00:12:42.367Z,16.60
2018-02-13T00:22:49.928Z,16.03
2018-02-13T00:32:52.266Z,14.93
2018-02-13T00:42:53.800Z,12.50
2018-02-13T00:52:55.297Z,16.90
2018-02-13T01:02:56.821Z,21.90
2018-02-13T01:12:58.380Z,16.37
2018-02-13T01:22:59.901Z,16.83
2018-02-13T01:33:01.432Z,12.83
2018-02-13T01:43:03.792Z,24.63
2018-02-13T01:53:05.391Z,27.37
2018-02-13T02:03:06.917Z,18.40
2018-02-13T02:13:09.245Z,20.80
2018-02-13T02:23:10.777Z,22.00
2018-02-13T02:33:13.079Z,21.20
2018-02-13T02:43:15.344Z,21.07
2018-02-13T02:53:16.901Z,31.67
2018-02-13T03:03:19.385Z,24.40
2018-02-13T03:13:20.978Z,20.37
2018-02-13T03:23:22.547Z,22.77
2018-02-13T03:33:24.066Z,18.43
2018-02-13T03:43:25.613Z,22.43
2018-02-13T03:53:27.891Z,29.20
2018-02-13T04:03:29.408Z,22.77
2018-02-13T04:13:31.029Z,26.23
2018-02-13T04:23:32.551Z,26.60
2018-02-13T04:33:34.916Z,27.73
2018-02-13T04:43:36.729Z,29.30
2018-02-13T04:53:38.281Z,39.30
2018-02-13T05:03:39.830Z,27.37
2018-02-13T05:13:41.324Z,26.87
2018-02-13T05:23:43.069Z,53.23
2018-02-13T05:33:45.368Z,30.63
2018-02-13T05:43:47.023Z,39.17
2018-02-13T05:53:48.542Z,32.10
2018-02-13T06:03:50.078Z,31.70
2018-02-13T06:13:51.579Z,31.40
2018-02-13T06:23:53.982Z,34.93
2018-02-13T06:33:55.486Z,43.10
2018-02-13T06:43:57.017Z,32.50
2018-02-13T06:53:58.483Z,41.83
2018-02-13T07:04:00.153Z,36.70
2018-02-13T07:14:01.693Z,39.57
2018-02-13T07:24:04.184Z,28.80
2018-02-13T07:34:05.782Z,29.53
2018-02-13T07:44:07.262Z,33.83
2018-02-13T07:54:08.796Z,27.17
2018-02-13T08:04:10.436Z,25.67
2018-02-13T08:14:11.990Z,37.83
2018-02-13T08:24:13.481Z,23.20
2018-02-13T08:34:15.341Z,35.33
2018-02-13T08:44:17.100Z,22.93
2018-02-13T08:54:18.684Z,24.43
2018-02-13T09:04:20.240Z,23.57
2018-02-13T09:14:22.491Z,30.53
2018-02-13T09:24:24.072Z,25.10
2018-02-13T09:34:25.634Z,24.10
2018-02-13T09:44:27.362Z,23.40
2018-02-13T09:54:29.670Z,22.00
2018-02-13T10:04:31.964Z,20.20
2018-02-13T10:14:33.717Z,33.40
2018-02-13T10:24:35.374Z,25.20
2018-02-13T10:34:36.941Z,19.17
2018-02-13T10:44:38.517Z,20.33
2018-02-13T10:54:40.046Z,29.87
2018-02-13T11:04:41.595Z,21.33
2018-02-13T11:14:43.888Z,16.90
2018-02-13T11:24:45.459Z,25.30
2018-02-13T11:34:47.065Z,28.00
2018-02-13T11:44:48.541Z,17.33
2018-02-13T11:54:50.104Z,24.23
2018-02-13T12:04:52.509Z,12.47
2018-02-13T12:14:54.033Z,11.30
2018-02-13T12:24:56.327Z,7.50
2018-02-13T12:34:58.163Z,12.80
2018-02-13T12:44:59.744Z,5.93
2018-02-13T12:55:02.099Z,7.90
2018-02-13T13:05:03.614Z,8.90
2018-02-13T13:15:05.098Z,17.93
2018-02-13T13:25:06.741Z,10.00
2018-02-13T13:35:08.556Z,9.10
2018-02-13T13:45:10.132Z,5.53
2018-02-13T13:55:11.826Z,6.77
2018-02-13T14:05:13.371Z,3.70
2018-02-13T14:15:15.056Z,6.07
2018-02-13T14:25:16.611Z,6.00
2018-02-13T14:35:18.986Z,6.03
2018-02-13T14:45:21.338Z,6.20
2018-02-13T14:55:22.838Z,3.30
2018-02-13T15:05:24.547Z,3.40
2018-02-13T15:15:29.024Z,6.87
2018-02-13T15:25:30.618Z,5.93
2018-02-13T15:35:32.193Z,6.83
2018-02-13T15:45:34.528Z,13.40
2018-02-13T15:55:36.105Z,9.30
2018-02-13T16:05:38.459Z,6.83
2018-02-13T16:15:40.425Z,7.00
2018-02-13T16:25:42.739Z,8.40
2018-02-13T16:35:44.564Z,9.40
2018-02-13T16:45:46.948Z,16.90
2018-02-13T16:55:48.491Z,9.83
2018-02-13T17:05:49.997Z,9.73
2018-02-13T17:15:51.680Z,7.77
2018-02-13T17:25:54.097Z,8.83
2018-02-13T17:35:55.639Z,10.03
2018-02-13T17:45:57.263Z,13.70
2018-02-13T17:55:58.808Z,7.70
2018-02-13T18:06:00.516Z,9.17
2018-02-13T18:16:02.092Z,7.33
2018-02-13T18:26:04.363Z,11.60
2018-02-13T18:36:05.830Z,10.33
2018-02-13T18:46:07.383Z,10.13
2018-02-13T18:56:08.966Z,13.13
2018-02-13T19:06:10.463Z,16.23
2018-02-13T19:16:12.018Z,5.80
2018-02-13T19:26:13.523Z,9.67
2018-02-13T19:36:15.034Z,7.37
2018-02-13T19:46:16.502Z,13.73
2018-02-13T19:56:18.881Z,11.70
2018-02-13T20:06:20.929Z,11.37
2018-02-13T20:16:22.549Z,11.57
2018-02-13T20:26:24.086Z,13.53
2018-02-13T20:36:25.755Z,15.13
2018-02-13T20:46:27.334Z,16.70
2018-02-13T20:56:29.645Z,21.53
2018-02-13T21:06:31.367Z,14.03
2018-02-13T21:16:33.041Z,13.57
2018-02-13T21:26:34.729Z,13.00
2018-02-13T21:36:36.324Z,17.67
2018-02-13T21:46:37.976Z,15.73
2018-02-13T21:56:39.596Z,18.57
2018-02-13T22:06:41.132Z,16.80
2018-02-13T22:16:42.803Z,16.70
2018-02-13T22:26:44.422Z,17.83
2018-02-13T22:36:45.967Z,16.60
2018-02-13T22:46:48.287Z,19.50
2018-02-13T22:56:50.595Z,19.10
2018-02-13T23:06:53.137Z,22.73
2018-02-13T23:16:55.421Z,20.00
2018-02-13T23:26:56.994Z,15.97
2018-02-13T23:36:58.552Z,19.33
2018-02-13T23:47:00.869Z,14.60
2018-02-13T23:57:02.416Z,19.23
